Time;durP1;ratioP1;P1;durP2;ratioP2;P2;SDS_P1;SDS_P2;PMS_P1;PMS_P2;Temp;Humidity;BMP_temperature;BMP_pressure;BME280_temperature;BME280_humidity;BME280_pressure;Samples;Min_cycle;Max_cycle;Signal;HPM_P1;HPM_P2
2024/01/18 00:00:03;;;;;;;22.20;16.50;;;;;;;-0.43;100.00;96582.19;436406;1260;142224;-64
2024/01/18 00:10:11;;;;;;;22.00;15.00;;;;;;;-0.40;100.00;96577.92;433300;1259;140668;-62
2024/01/18 00:20:17;;;;;;;26.10;16.30;;;;;;;-0.36;100.00;96571.44;434205;1257;139877;-62
2024/01/18 00:30:22;;;;;;;19.90;15.70;;;;;;;-0.28;100.00;96576.06;432893;1260;139903;-63
2024/01/18 00:40:29;;;;;;;22.80;15.10;;;;;;;-0.17;100.00;96577.69;432764;1260;140676;-62
2024/01/18 00:50:34;;;;;;;23.00;16.40;;;;;;;-0.05;100.00;96580.34;432747;1256;140487;-62
2024/01/18 01:00:40;;;;;;;24.10;18.90;;;;;;;0.04;100.00;96580.62;432650;1259;140895;-63
2024/01/18 01:10:46;;;;;;;23.90;16.90;;;;;;;0.13;100.00;96590.44;432778;1256;140362;-61
2024/01/18 01:20:52;;;;;;;30.10;19.60;;;;;;;0.25;100.00;96596.36;433154;1260;140708;-63
2024/01/18 01:30:57;;;;;;;25.00;14.70;;;;;;;0.32;100.00;96594.16;433381;1260;139534;-62
2024/01/18 01:41:04;;;;;;;23.00;18.90;;;;;;;0.37;100.00;96586.88;433190;1260;140656;-63
2024/01/18 01:51:11;;;;;;;25.90;17.60;;;;;;;0.41;100.00;96583.30;434148;1260;140155;-62
2024/01/18 02:01:17;;;;;;;24.80;19.00;;;;;;;0.46;100.00;96574.05;432914;1261;140951;-62
2024/01/18 02:11:23;;;;;;;26.00;19.40;;;;;;;0.49;100.00;96592.10;432791;1261;140052;-62
2024/01/18 02:21:28;;;;;;;30.60;21.00;;;;;;;0.50;100.00;96592.36;433004;1260;142715;-62
2024/01/18 02:31:34;;;;;;;34.00;22.20;;;;;;;0.50;100.00;96588.77;432809;1260;322092;-62
2024/01/18 02:41:41;;;;;;;25.00;20.10;;;;;;;0.49;100.00;96598.97;432746;1260;140217;-62
2024/01/18 02:51:48;;;;;;;24.30;19.80;;;;;;;0.47;100.00;96599.96;433336;1260;141148;-64
2024/01/18 03:01:53;;;;;;;26.20;19.30;;;;;;;0.47;100.00;96608.57;432929;1260;140003;-62
2024/01/18 03:11:59;;;;;;;24.60;20.00;;;;;;;0.46;100.00;96623.09;432789;1266;142240;-62
2024/01/18 03:22:05;;;;;;;25.70;19.40;;;;;;;0.49;100.00;96621.56;432788;1261;139933;-62
2024/01/18 03:32:12;;;;;;;27.30;20.20;;;;;;;0.50;100.00;96624.00;433901;1261;139762;-62
2024/01/18 03:42:17;;;;;;;20.70;16.10;;;;;;;0.53;100.00;96629.88;432765;1260;139456;-62
2024/01/18 03:52:23;;;;;;;21.20;16.30;;;;;;;0.51;100.00;96637.17;432802;1260;143760;-62
2024/01/18 04:02:28;;;;;;;22.90;16.30;;;;;;;0.51;100.00;96650.95;432870;1260;139993;-62
2024/01/18 04:12:35;;;;;;;16.80;12.30;;;;;;;0.58;100.00;96661.18;432876;1262;140710;-62
2024/01/18 04:22:41;;;;;;;15.00;12.40;;;;;;;0.66;100.00;96676.47;434838;1257;139823;-62
2024/01/18 04:32:46;;;;;;;17.70;14.30;;;;;;;0.68;100.00;96688.20;432993;1260;140925;-62
2024/01/18 04:42:52;;;;;;;18.10;15.00;;;;;;;0.65;100.00;96696.52;433396;1260;140160;-62
2024/01/18 04:53:00;;;;;;;16.40;14.70;;;;;;;0.61;100.00;96707.98;433574;1258;141737;-62
2024/01/18 05:03:07;;;;;;;17.80;14.50;;;;;;;0.58;100.00;96728.84;433533;1257;141157;-62
2024/01/18 05:13:13;;;;;;;16.70;14.00;;;;;;;0.52;100.00;96739.73;437648;1256;139876;-62
2024/01/18 05:23:19;;;;;;;19.70;15.70;;;;;;;0.47;100.00;96748.49;436525;1256;140360;-63
2024/01/18 05:33:24;;;;;;;18.40;15.60;;;;;;;0.42;100.00;96765.02;432912;1258;139877;-62
2024/01/18 05:43:30;;;;;;;21.10;16.50;;;;;;;0.35;100.00;96788.71;432912;1257;139702;-64
2024/01/18 05:53:36;;;;;;;23.80;19.00;;;;;;;0.29;100.00;96799.98;433200;1257;139540;-62
2024/01/18 06:03:44;;;;;;;24.90;17.40;;;;;;;0.24;100.00;96806.15;434416;1257;140371;-62
2024/01/18 06:13:50;;;;;;;24.20;17.60;;;;;;;0.19;100.00;96809.93;436601;1258;139764;-62
2024/01/18 06:23:56;;;;;;;24.90;18.90;;;;;;;0.13;100.00;96817.00;433246;1260;140482;-63
2024/01/18 06:34:01;;;;;;;26.40;20.10;;;;;;;0.08;100.00;96833.20;433730;1260;140731;-63
2024/01/18 06:44:08;;;;;;;27.80;20.50;;;;;;;0.03;100.00;96858.78;435907;1259;140874;-62
2024/01/18 06:54:14;;;;;;;27.90;20.40;;;;;;;0.00;100.00;96879.79;433017;1257;139498;-63
2024/01/18 07:04:22;;;;;;;28.60;20.90;;;;;;;-0.05;100.00;96890.05;432514;1260;139605;-63
2024/01/18 07:14:29;;;;;;;32.50;23.80;;;;;;;-0.07;100.00;96904.99;432956;1260;141546;-61
2024/01/18 07:24:39;;;;;;;26.90;20.10;;;;;;;-0.09;100.00;96907.02;432863;1260;139891;-63
2024/01/18 07:34:46;;;;;;;32.40;22.70;;;;;;;-0.10;100.00;96922.92;433018;1260;140448;-66
2024/01/18 07:44:52;;;;;;;37.90;25.80;;;;;;;-0.11;100.00;96938.42;433005;1257;139740;-67
2024/01/18 07:54:57;;;;;;;38.10;26.80;;;;;;;-0.10;100.00;96949.89;433036;1257;140195;-68
2024/01/18 08:05:04;;;;;;;40.00;27.90;;;;;;;-0.05;100.00;96968.66;437577;1257;141615;-63
2024/01/18 08:15:12;;;;;;;35.40;25.60;;;;;;;-0.04;100.00;96987.02;434386;1259;139920;-65
2024/01/18 08:25:18;;;;;;;35.50;26.10;;;;;;;-0.02;100.00;96997.71;435138;1255;141204;-68
2024/01/18 08:35:25;;;;;;;39.00;27.50;;;;;;;0.03;100.00;97007.73;432863;1256;140040;-66
2024/01/18 08:45:31;;;;;;;35.30;25.80;;;;;;;0.07;100.00;97015.95;432919;1259;139714;-65
2024/01/18 08:55:38;;;;;;;34.80;24.30;;;;;;;0.13;100.00;97033.44;432792;1258;140707;-66
2024/01/18 09:05:44;;;;;;;32.70;23.30;;;;;;;0.20;100.00;97041.94;449486;1255;140913;-60
2024/01/18 09:15:51;;;;;;;34.80;26.50;;;;;;;0.35;100.00;97044.98;432523;1257;141203;-64
2024/01/18 09:25:57;;;;;;;44.30;23.80;;;;;;;0.58;100.00;97049.02;434613;1256;140384;-67
2024/01/18 09:36:03;;;;;;;34.00;24.40;;;;;;;0.95;100.00;97058.06;432705;1257;141270;-62
2024/01/18 09:46:11;;;;;;;37.30;24.40;;;;;;;1.02;100.00;97092.54;432667;1256;140906;-65
2024/01/18 09:56:27;;;;;;;34.60;23.90;;;;;;;0.78;100.00;97107.35;432959;1260;140770;-69
2024/01/18 10:06:33;;;;;;;27.30;21.10;;;;;;;0.72;100.00;97099.84;432733;1260;139932;-62
2024/01/18 10:16:41;;;;;;;25.50;20.80;;;;;;;0.91;100.00;97101.58;432708;1256;140282;-60
2024/01/18 10:26:47;;;;;;;30.00;21.90;;;;;;;1.02;100.00;97106.51;432562;1260;140752;-63
2024/01/18 10:36:53;;;;;;;29.50;21.60;;;;;;;1.25;100.00;97117.27;432717;1256;139526;-63
2024/01/18 10:46:59;;;;;;;30.50;22.80;;;;;;;1.30;100.00;97147.83;432682;1260;141329;-63
2024/01/18 10:57:05;;;;;;;35.50;23.90;;;;;;;1.18;100.00;97173.38;432772;1256;139855;-64
2024/01/18 11:07:12;;;;;;;38.20;28.10;;;;;;;0.90;100.00;97173.08;434077;1255;140921;-62
2024/01/18 11:17:21;;;;;;;36.40;26.20;;;;;;;0.89;100.00;97172.11;432746;1256;139718;-63
2024/01/18 11:27:28;;;;;;;40.90;29.10;;;;;;;1.28;100.00;97182.91;435662;1260;141789;-62
2024/01/18 11:37:34;;;;;;;36.10;25.80;;;;;;;1.46;100.00;97180.21;433244;1256;140198;-62
2024/01/18 11:47:40;;;;;;;39.90;27.30;;;;;;;1.46;100.00;97174.55;432658;1258;140909;-63
2024/01/18 11:57:47;;;;;;;37.20;28.90;;;;;;;1.36;100.00;97195.84;432828;1256;140375;-68
2024/01/18 12:07:53;;;;;;;39.50;27.60;;;;;;;1.20;100.00;97191.52;436920;1255;140269;-71
2024/01/18 12:18:00;;;;;;;33.00;25.80;;;;;;;0.94;100.00;97177.52;436334;1256;140435;-65
2024/01/18 12:28:07;;;;;;;38.90;28.80;;;;;;;0.81;100.00;97167.11;433325;1256;139890;-64
2024/01/18 12:38:11;;;;;;;;;;;;;;;0.73;100.00;97171.27;439990;1255;139878;-67
2024/01/18 12:48:18;;;;;;;31.10;24.20;;;;;;;0.75;100.00;97169.06;432983;1256;126103;-66
2024/01/18 12:58:26;;;;;;;38.60;28.40;;;;;;;0.64;100.00;97197.98;434984;1255;140908;-66
2024/01/18 13:08:32;;;;;;;37.90;26.60;;;;;;;0.37;100.00;97245.56;434832;1255;140247;-64
2024/01/18 13:18:39;;;;;;;36.80;26.80;;;;;;;0.06;100.00;97247.71;433300;1260;140527;-64
2024/01/18 13:28:43;;;;;;;;;;;;;;;-0.07;100.00;97264.27;432769;1260;141707;-59
2024/01/18 13:38:49;;;;;;;35.20;26.30;;;;;;;-0.13;100.00;97263.42;432870;1260;126361;-63
2024/01/18 13:48:55;;;;;;;32.30;24.80;;;;;;;-0.23;100.00;97284.46;433958;1258;140047;-59
2024/01/18 13:59:01;;;;;;;29.50;21.90;;;;;;;-0.36;100.00;97307.38;432747;1259;141154;-64
2024/01/18 14:09:07;;;;;;;32.80;23.90;;;;;;;-0.54;100.00;97312.28;432666;1259;139938;-65
2024/01/18 14:19:11;;;;;;;;;;;;;;;-0.62;100.00;97328.02;432830;1256;140646;-62
2024/01/18 14:29:17;;;;;;;32.90;21.90;;;;;;;-0.75;100.00;97331.63;432540;1256;177208;-63
2024/01/18 14:39:23;;;;;;;40.00;27.30;;;;;;;-0.92;100.00;97357.95;432752;1259;140235;-63
2024/01/18 14:49:29;;;;;;;33.90;24.90;;;;;;;-1.05;100.00;97369.15;433058;1256;140450;-63
2024/01/18 14:59:35;;;;;;;33.90;22.90;;;;;;;-1.23;100.00;97378.79;432499;1260;140058;-60
2024/01/18 15:09:42;;;;;;;23.90;17.10;;;;;;;-1.34;100.00;97384.69;432540;1259;139746;-61
2024/01/18 15:19:48;;;;;;;31.40;23.30;;;;;;;-1.47;100.00;97391.15;432872;1256;140035;-60
2024/01/18 15:29:54;;;;;;;30.60;22.70;;;;;;;-1.53;100.00;97399.86;432726;1258;140697;-60
2024/01/18 15:40:00;;;;;;;37.50;25.30;;;;;;;-1.58;100.00;97425.85;432905;1259;140862;-59
2024/01/18 15:50:07;;;;;;;38.20;27.60;;;;;;;-1.65;100.00;97447.48;432973;1259;140084;-59
2024/01/18 16:00:15;;;;;;;37.90;28.80;;;;;;;-1.72;100.00;97474.92;433546;1260;140784;-61
2024/01/18 16:10:27;;;;;;;42.10;31.80;;;;;;;-1.77;100.00;97482.73;433443;1258;141753;-60
2024/01/18 16:20:33;;;;;;;40.50;28.70;;;;;;;-1.84;100.00;97502.23;434216;1260;140627;-60
2024/01/18 16:30:39;;;;;;;39.20;27.80;;;;;;;-1.88;100.00;97523.86;433492;1260;140835;-62
2024/01/18 16:40:45;;;;;;;35.90;27.90;;;;;;;-1.90;100.00;97546.26;433289;1256;139942;-62
2024/01/18 16:50:51;;;;;;;42.90;30.70;;;;;;;-1.97;100.00;97566.64;432927;1260;140054;-62
2024/01/18 17:00:57;;;;;;;46.10;32.50;;;;;;;-2.02;100.00;97587.96;433705;1256;141500;-63
2024/01/18 17:11:03;;;;;;;45.90;33.60;;;;;;;-2.08;100.00;97607.06;432933;1259;141228;-63
2024/01/18 17:21:11;;;;;;;46.90;34.00;;;;;;;-2.11;100.00;97628.98;433064;1259;140218;-62
2024/01/18 17:31:17;;;;;;;43.00;31.70;;;;;;;-2.14;100.00;97645.92;433109;1258;141341;-62
2024/01/18 17:41:23;;;;;;;50.10;36.50;;;;;;;-2.15;100.00;97662.04;432983;1261;141728;-62
2024/01/18 17:51:29;;;;;;;48.30;34.10;;;;;;;-2.14;100.00;97674.04;432904;1259;141352;-62
2024/01/18 18:01:35;;;;;;;47.40;37.90;;;;;;;-2.15;100.00;97679.04;436151;1256;140712;-62
2024/01/18 18:11:41;;;;;;;46.30;33.80;;;;;;;-2.13;100.00;97685.48;433054;1260;140738;-62
2024/01/18 18:21:48;;;;;;;43.90;32.70;;;;;;;-2.14;100.00;97696.63;432907;1256;140498;-63
2024/01/18 18:31:54;;;;;;;47.60;33.40;;;;;;;-2.14;100.00;97716.21;433967;1258;139841;-63
2024/01/18 18:42:00;;;;;;;50.20;32.60;;;;;;;-2.15;100.00;97735.27;433133;1260;140087;-63
2024/01/18 18:52:06;;;;;;;43.40;32.20;;;;;;;-2.17;100.00;97743.05;433163;1259;140843;-62
2024/01/18 19:02:12;;;;;;;42.60;32.40;;;;;;;-2.21;100.00;97746.83;438938;1260;139867;-61
2024/01/18 19:12:17;;;;;;;44.10;31.80;;;;;;;-2.25;100.00;97777.16;432893;1257;140651;-62
2024/01/18 19:22:23;;;;;;;41.20;29.40;;;;;;;-2.26;100.00;97786.95;433010;1261;140861;-62
2024/01/18 19:32:29;;;;;;;43.80;30.30;;;;;;;-2.28;100.00;97810.54;433707;1260;139665;-61
2024/01/18 19:42:34;;;;;;;;;;;;;;;-2.33;100.00;97848.61;433356;1256;140817;-64
2024/01/18 19:52:40;;;;;;;44.10;32.90;;;;;;;-2.37;100.00;97872.60;432771;1256;128584;-65
2024/01/18 20:02:45;;;;;;;49.90;32.90;;;;;;;-2.40;100.00;97898.77;432825;1260;141128;-65
2024/01/18 20:12:50;;;;;;;;;;;;;;;-2.41;100.00;97917.13;433055;1259;139788;-64
2024/01/18 20:22:56;;;;;;;40.30;30.00;;;;;;;-2.41;100.00;97953.11;432946;1260;126647;-64
2024/01/18 20:33:02;;;;;;;44.20;31.80;;;;;;;-2.45;100.00;97963.72;433010;1260;140653;-75
2024/01/18 20:43:06;;;;;;;;;;;;;;;-2.45;100.00;97988.39;432908;1260;139963;-62
2024/01/18 20:53:12;;;;;;;44.00;30.40;;;;;;;-2.42;100.00;98003.55;432976;1261;127038;-62
2024/01/18 21:03:18;;;;;;;45.00;32.30;;;;;;;-2.39;100.00;98033.96;433631;1260;140140;-61
2024/01/18 21:13:24;;;;;;;45.50;31.10;;;;;;;-2.40;100.00;98040.84;433628;1257;140832;-61
2024/01/18 21:23:29;;;;;;;41.90;30.50;;;;;;;-2.41;100.00;98058.20;433430;1259;140930;-62
2024/01/18 21:33:37;;;;;;;34.10;27.30;;;;;;;-2.43;100.00;98077.28;432817;1260;140282;-61
2024/01/18 21:43:43;;;;;;;37.90;27.80;;;;;;;-2.44;100.00;98096.34;432846;1261;141015;-61
2024/01/18 21:53:49;;;;;;;40.50;28.20;;;;;;;-2.45;100.00;98124.84;432916;1260;141100;-61
2024/01/18 22:03:55;;;;;;;38.70;29.60;;;;;;;-2.46;100.00;98143.21;433023;1260;140480;-60
2024/01/18 22:14:00;;;;;;;39.90;28.70;;;;;;;-2.47;100.00;98156.23;433334;1260;141465;-61
2024/01/18 22:24:06;;;;;;;41.90;29.90;;;;;;;-2.44;100.00;98172.08;433410;1260;140758;-61
2024/01/18 22:34:12;;;;;;;39.50;29.80;;;;;;;-2.44;100.00;98186.30;433312;1260;141393;-61
2024/01/18 22:44:18;;;;;;;45.10;30.50;;;;;;;-2.43;100.00;98206.83;433124;1262;140088;-61
2024/01/18 22:54:24;;;;;;;43.40;30.70;;;;;;;-2.45;100.00;98224.06;433393;1260;142327;-61
2024/01/18 23:04:29;;;;;;;46.00;30.50;;;;;;;-2.45;100.00;98237.78;433243;1257;141422;-62
2024/01/18 23:14:35;;;;;;;47.00;31.30;;;;;;;-2.48;100.00;98260.84;433440;1260;140785;-62
2024/01/18 23:24:41;;;;;;;38.70;27.80;;;;;;;-2.58;100.00;98281.88;433689;1260;140871;-62
2024/01/18 23:34:47;;;;;;;42.40;27.30;;;;;;;-2.71;100.00;98304.04;433210;1257;140262;-61
2024/01/18 23:44:53;;;;;;;42.00;28.70;;;;;;;-2.78;100.00;98329.10;436130;1257;140064;-61
2024/01/18 23:54:59;;;;;;;39.90;25.50;;;;;;;-2.83;100.00;98354.94;432971;1259;141322;-61
